createdAt,value
2022-09-25T00:00:59.084Z,7.60
2022-09-25T00:03:28.793Z,7.50
2022-09-25T00:06:07.858Z,7.50
2022-09-25T00:08:36.202Z,7.50
2022-09-25T00:11:08.691Z,7.50
2022-09-25T00:13:36.207Z,7.50
2022-09-25T00:16:04.037Z,7.50
2022-09-25T00:18:49.658Z,7.40
2022-09-25T00:21:18.007Z,7.40
2022-09-25T00:23:45.421Z,7.40
2022-09-25T00:26:14.898Z,7.50
2022-09-25T00:28:43.137Z,7.40
2022-09-25T00:31:13.117Z,7.40
2022-09-25T00:33:40.176Z,7.30
2022-09-25T00:36:10.258Z,7.40
2022-09-25T00:38:38.603Z,7.30
2022-09-25T00:41:07.807Z,7.30
2022-09-25T00:43:45.290Z,7.30
2022-09-25T00:46:18.532Z,7.20
2022-09-25T00:48:56.310Z,7.20
2022-09-25T00:51:29.581Z,7.20
2022-09-25T00:54:03.845Z,7.20
2022-09-25T00:56:37.970Z,7.20
2022-09-25T00:59:07.197Z,7.20
2022-09-25T01:01:34.335Z,7.20
2022-09-25T01:04:01.603Z,7.20
2022-09-25T01:06:30.362Z,7.20
2022-09-25T01:08:58.002Z,7.20
2022-09-25T01:11:24.775Z,7.20
2022-09-25T01:13:55.368Z,7.10
2022-09-25T01:16:34.374Z,7.20
2022-09-25T01:19:25.895Z,7.20
2022-09-25T01:21:54.579Z,7.10
2022-09-25T01:24:52.279Z,7.20
2022-09-25T01:27:40.805Z,7.10
2022-09-25T01:30:19.290Z,7.10
2022-09-25T01:32:56.888Z,7.10
2022-09-25T01:35:41.853Z,7.10
2022-09-25T01:38:31.249Z,7.10
2022-09-25T01:41:33.303Z,7.10
2022-09-25T01:44:06.595Z,7.10
2022-09-25T01:46:43.141Z,7.10
2022-09-25T01:49:18.976Z,7.00
2022-09-25T01:51:52.838Z,7.00
2022-09-25T01:54:32.651Z,7.00
2022-09-25T01:57:07.916Z,7.00
2022-09-25T01:59:34.616Z,6.90
2022-09-25T02:02:05.861Z,6.90
2022-09-25T02:04:37.375Z,6.90
2022-09-25T02:07:08.875Z,6.90
2022-09-25T02:09:49.736Z,6.90
2022-09-25T02:12:23.360Z,6.80
2022-09-25T02:14:58.239Z,6.80
2022-09-25T02:18:06.923Z,6.70
2022-09-25T02:20:36.556Z,6.70
2022-09-25T02:23:09.042Z,6.60
2022-09-25T02:25:41.136Z,6.60
2022-09-25T02:28:08.344Z,6.60
2022-09-25T02:30:36.341Z,6.60
2022-09-25T02:33:04.268Z,6.50
2022-09-25T02:35:32.672Z,6.50
2022-09-25T02:38:00.792Z,6.50
2022-09-25T02:40:37.662Z,6.50
2022-09-25T02:43:21.558Z,6.40
2022-09-25T02:46:00.670Z,6.40
2022-09-25T02:49:00.420Z,6.40
2022-09-25T02:51:42.045Z,6.40
2022-09-25T02:54:21.031Z,6.30
2022-09-25T02:57:04.801Z,6.30
2022-09-25T02:59:38.711Z,6.20
2022-09-25T03:02:06.637Z,6.20
2022-09-25T03:04:35.589Z,6.20
2022-09-25T03:07:03.178Z,6.20
2022-09-25T03:09:34.877Z,6.20
2022-09-25T03:12:05.067Z,6.20
2022-09-25T03:14:32.633Z,6.20
2022-09-25T03:17:04.751Z,6.20
2022-09-25T03:19:34.421Z,6.20
2022-09-25T03:22:02.850Z,6.20
2022-09-25T03:24:29.901Z,6.10
2022-09-25T03:26:56.961Z,6.10
2022-09-25T03:29:23.842Z,6.10
2022-09-25T03:31:52.007Z,6.10
2022-09-25T03:34:19.601Z,6.10
2022-09-25T03:36:48.526Z,6.10
2022-09-25T03:39:18.031Z,6.10
2022-09-25T03:41:45.667Z,6.10
2022-09-25T03:44:12.898Z,6.10
2022-09-25T03:46:39.982Z,6.10
2022-09-25T03:49:07.186Z,6.10
2022-09-25T03:51:34.257Z,6.10
2022-09-25T03:54:01.192Z,6.10
2022-09-25T03:56:29.730Z,6.10
2022-09-25T03:58:57.512Z,6.00
2022-09-25T04:01:25.517Z,6.00
2022-09-25T04:03:52.965Z,6.00
2022-09-25T04:06:24.433Z,6.00
2022-09-25T04:08:53.146Z,6.00
2022-09-25T04:11:22.036Z,6.00
2022-09-25T04:13:48.962Z,6.00
2022-09-25T04:16:17.544Z,5.90
2022-09-25T04:18:44.688Z,5.90
2022-09-25T04:21:13.460Z,5.90
2022-09-25T04:23:40.911Z,5.90
2022-09-25T04:26:09.105Z,5.90
2022-09-25T04:28:36.460Z,5.90
2022-09-25T04:31:04.305Z,5.80
2022-09-25T04:33:47.557Z,5.80
2022-09-25T04:36:19.254Z,5.80
2022-09-25T04:38:48.068Z,5.80
2022-09-25T04:41:20.312Z,5.80
2022-09-25T04:43:48.507Z,5.80
2022-09-25T04:46:21.503Z,5.80
2022-09-25T04:48:49.911Z,5.80
2022-09-25T04:51:16.842Z,5.90
2022-09-25T04:53:43.607Z,5.90
2022-09-25T04:56:15.811Z,5.90
2022-09-25T04:58:47.995Z,5.90
2022-09-25T05:01:17.364Z,5.90
2022-09-25T05:03:44.311Z,6.00
2022-09-25T05:06:11.374Z,6.00
2022-09-25T05:08:38.283Z,6.10
2022-09-25T05:11:05.109Z,6.10
2022-09-25T05:13:31.901Z,6.10
2022-09-25T05:15:58.839Z,6.20
2022-09-25T05:18:26.601Z,6.30
2022-09-25T05:20:54.324Z,6.30
2022-09-25T05:23:21.958Z,6.40
2022-09-25T05:26:00.689Z,6.40
2022-09-25T05:28:28.544Z,6.50
2022-09-25T05:31:01.519Z,6.60
2022-09-25T05:33:28.444Z,6.70
2022-09-25T05:35:55.348Z,6.80
2022-09-25T05:38:22.138Z,6.90
2022-09-25T05:40:49.064Z,7.00
2022-09-25T05:43:19.311Z,7.10
2022-09-25T05:45:54.245Z,7.20
2022-09-25T05:48:21.202Z,7.30
2022-09-25T05:50:55.689Z,7.40
2022-09-25T05:53:23.342Z,7.50
2022-09-25T05:55:50.957Z,7.60
2022-09-25T05:58:18.070Z,7.70
2022-09-25T06:00:45.393Z,7.80
2022-09-25T06:03:13.250Z,8.00
2022-09-25T06:05:40.667Z,8.10
2022-09-25T06:08:08.602Z,8.20
2022-09-25T06:10:35.776Z,8.30
2022-09-25T06:13:06.848Z,8.40
2022-09-25T06:15:38.672Z,8.60
2022-09-25T06:18:06.614Z,8.70
2022-09-25T06:20:33.948Z,8.80
2022-09-25T06:23:01.338Z,8.90
2022-09-25T06:25:32.556Z,9.00
2022-09-25T06:28:01.045Z,9.20
2022-09-25T06:30:34.398Z,9.20
2022-09-25T06:33:03.481Z,9.30
2022-09-25T06:35:30.370Z,9.40
2022-09-25T06:37:59.161Z,9.40
2022-09-25T06:40:27.937Z,9.50
2022-09-25T06:42:57.503Z,9.50
2022-09-25T06:45:26.788Z,9.50
2022-09-25T06:47:57.770Z,9.60
2022-09-25T06:50:31.926Z,9.60
2022-09-25T06:52:59.973Z,9.60
2022-09-25T06:55:32.398Z,9.70
2022-09-25T06:57:59.291Z,9.70
2022-09-25T07:00:26.174Z,9.70
2022-09-25T07:03:11.750Z,9.80
2022-09-25T07:05:38.932Z,9.80
2022-09-25T07:08:05.705Z,9.90
2022-09-25T07:10:33.455Z,9.90
2022-09-25T07:13:00.446Z,10.00
2022-09-25T07:15:27.505Z,10.10
2022-09-25T07:17:54.284Z,10.20
2022-09-25T07:20:21.796Z,10.30
2022-09-25T07:22:48.683Z,10.40
2022-09-25T07:25:15.654Z,10.50
2022-09-25T07:27:42.625Z,10.60
2022-09-25T07:30:10.193Z,10.80
2022-09-25T07:32:37.330Z,10.90
2022-09-25T07:35:04.380Z,11.10
2022-09-25T07:37:31.402Z,11.30
2022-09-25T07:39:58.175Z,11.50
2022-09-25T07:42:25.165Z,11.60
2022-09-25T07:44:52.502Z,11.80
2022-09-25T07:47:20.653Z,11.90
2022-09-25T07:49:47.667Z,12.00
2022-09-25T07:52:16.443Z,12.10
2022-09-25T07:54:43.879Z,12.10
2022-09-25T07:57:10.813Z,12.20
2022-09-25T07:59:37.590Z,12.20
2022-09-25T08:02:05.292Z,12.30
2022-09-25T08:04:32.284Z,12.30
2022-09-25T08:07:00.161Z,12.40
2022-09-25T08:09:26.937Z,12.50
2022-09-25T08:11:53.732Z,12.70
2022-09-25T08:14:25.883Z,12.80
2022-09-25T08:16:55.904Z,12.90
2022-09-25T08:19:23.531Z,13.10
2022-09-25T08:21:50.586Z,13.20
2022-09-25T08:24:18.480Z,13.30
2022-09-25T08:26:47.452Z,13.50
2022-09-25T08:29:15.514Z,13.60
2022-09-25T08:31:42.614Z,13.70
2022-09-25T08:34:38.877Z,13.90
2022-09-25T08:36:58.296Z,14.00
2022-09-25T08:39:25.414Z,14.20
2022-09-25T08:41:58.565Z,14.30
2022-09-25T08:44:52.559Z,14.40
2022-09-25T08:47:48.058Z,14.40
2022-09-25T08:50:23.697Z,14.50
2022-09-25T08:52:55.130Z,14.40
2022-09-25T08:55:49.398Z,14.50
2022-09-25T08:58:29.785Z,14.40
2022-09-25T09:01:05.450Z,14.40
2022-09-25T09:03:36.583Z,14.30
2022-09-25T09:06:07.718Z,14.30
2022-09-25T09:08:37.751Z,14.30
2022-09-25T09:11:04.602Z,14.40
2022-09-25T09:13:44.271Z,14.50
2022-09-25T09:16:23.206Z,14.60
2022-09-25T09:18:50.517Z,14.70
2022-09-25T09:21:38.957Z,14.80
2022-09-25T09:24:24.188Z,14.90
2022-09-25T09:27:25.796Z,15.00
2022-09-25T09:30:24.416Z,15.10
2022-09-25T09:33:14.093Z,15.20
2022-09-25T09:36:02.398Z,15.30
2022-09-25T09:38:48.601Z,15.30
2022-09-25T09:41:40.398Z,15.40
2022-09-25T09:44:19.376Z,15.40
2022-09-25T09:47:08.144Z,15.50
2022-09-25T09:49:44.791Z,15.50
2022-09-25T09:52:11.814Z,15.60
2022-09-25T09:54:55.378Z,15.70
2022-09-25T09:57:25.668Z,15.70
2022-09-25T10:00:17.360Z,15.80
2022-09-25T10:02:55.751Z,15.90
2022-09-25T10:05:36.725Z,15.90
2022-09-25T10:08:05.145Z,16.00
2022-09-25T10:10:40.668Z,16.10
2022-09-25T10:13:19.368Z,16.10
2022-09-25T10:16:06.187Z,16.20
2022-09-25T10:18:43.288Z,16.30
2022-09-25T10:21:18.369Z,16.30
2022-09-25T10:23:51.561Z,16.30
2022-09-25T10:26:30.671Z,16.30
2022-09-25T10:29:03.141Z,16.30
2022-09-25T10:31:40.674Z,16.40
2022-09-25T10:34:31.266Z,16.40
2022-09-25T10:36:58.498Z,16.50
2022-09-25T10:39:48.904Z,16.50
2022-09-25T10:42:32.423Z,16.60
2022-09-25T10:44:59.317Z,16.70
2022-09-25T10:47:51.133Z,16.70
2022-09-25T10:50:30.584Z,16.80
2022-09-25T10:53:03.759Z,16.90
2022-09-25T10:55:36.533Z,16.90
2022-09-25T10:58:10.767Z,17.00
2022-09-25T11:00:43.446Z,17.10
2022-09-25T11:03:21.922Z,17.20
2022-09-25T11:06:05.153Z,17.40
2022-09-25T11:08:38.004Z,17.50
2022-09-25T11:11:07.342Z,17.70
2022-09-25T11:13:48.015Z,17.80
2022-09-25T11:16:15.565Z,18.00
2022-09-25T11:19:34.983Z,18.10
2022-09-25T11:22:20.482Z,18.30
2022-09-25T11:25:05.886Z,18.50
2022-09-25T11:27:53.451Z,18.70
2022-09-25T11:30:22.656Z,18.90
2022-09-25T11:33:21.150Z,19.20
2022-09-25T11:36:32.586Z,19.60
2022-09-25T11:39:27.732Z,20.20
2022-09-25T11:42:11.867Z,20.90
2022-09-25T11:44:54.374Z,21.70
2022-09-25T11:47:37.122Z,22.10
2022-09-25T11:50:05.005Z,22.40
2022-09-25T11:53:05.075Z,22.60
2022-09-25T11:55:50.288Z,22.90
2022-09-25T11:58:35.951Z,23.30
2022-09-25T12:01:12.003Z,23.90
2022-09-25T12:03:57.036Z,24.40
2022-09-25T12:06:30.072Z,24.50
2022-09-25T12:09:18.230Z,24.60
2022-09-25T12:11:54.424Z,24.30
2022-09-25T12:14:44.135Z,24.00
2022-09-25T12:17:37.302Z,23.70
2022-09-25T12:20:17.575Z,23.50
2022-09-25T12:23:04.714Z,23.80
2022-09-25T12:25:57.117Z,24.40
2022-09-25T12:28:52.328Z,25.20
2022-09-25T12:31:39.495Z,25.60
2022-09-25T12:34:37.894Z,25.70
2022-09-25T12:37:18.698Z,25.30
2022-09-25T12:39:51.471Z,24.80
2022-09-25T12:42:24.393Z,24.40
2022-09-25T12:45:09.661Z,23.90
2022-09-25T12:47:59.769Z,23.60
2022-09-25T12:50:31.425Z,23.80
2022-09-25T12:53:02.363Z,24.30
2022-09-25T12:55:45.284Z,25.10
2022-09-25T12:58:42.829Z,26.00
2022-09-25T13:01:31.242Z,26.90
2022-09-25T13:04:04.940Z,27.70
2022-09-25T13:06:43.000Z,28.20
2022-09-25T13:09:12.824Z,28.50
2022-09-25T13:11:58.896Z,28.20
2022-09-25T13:14:44.386Z,27.70
2022-09-25T13:17:13.693Z,27.20
2022-09-25T13:19:40.598Z,26.70
2022-09-25T13:22:25.033Z,26.20
2022-09-25T13:25:02.701Z,25.50
2022-09-25T13:27:38.755Z,24.90
2022-09-25T13:30:07.100Z,24.30
2022-09-25T13:32:35.220Z,23.70
2022-09-25T13:35:19.341Z,23.20
2022-09-25T13:37:48.377Z,22.70
2022-09-25T13:40:46.103Z,22.20
2022-09-25T13:43:24.010Z,21.80
2022-09-25T13:46:23.340Z,21.40
2022-09-25T13:48:55.730Z,21.00
2022-09-25T13:51:22.638Z,20.80
2022-09-25T13:54:03.695Z,20.50
2022-09-25T13:56:33.743Z,20.30
2022-09-25T13:59:13.950Z,20.00
2022-09-25T14:01:49.175Z,19.90
2022-09-25T14:04:16.123Z,19.70
2022-09-25T14:06:48.424Z,19.50
2022-09-25T14:09:19.834Z,19.40
2022-09-25T14:12:03.229Z,19.40
2022-09-25T14:14:55.992Z,19.40
2022-09-25T14:17:27.579Z,19.50
2022-09-25T14:19:57.274Z,19.60
2022-09-25T14:22:26.970Z,19.80
2022-09-25T14:24:53.760Z,20.00
2022-09-25T14:27:26.277Z,20.20
2022-09-25T14:30:01.930Z,20.40
2022-09-25T14:32:55.078Z,20.60
2022-09-25T14:35:36.014Z,20.80
2022-09-25T14:38:37.275Z,20.80
2022-09-25T14:41:31.161Z,20.90
2022-09-25T14:44:27.323Z,20.90
2022-09-25T14:46:55.324Z,20.80
2022-09-25T14:49:40.460Z,20.70
2022-09-25T14:52:13.309Z,20.60
2022-09-25T14:54:45.044Z,20.60
2022-09-25T14:57:16.154Z,20.40
2022-09-25T14:59:50.162Z,20.30
2022-09-25T15:02:23.504Z,20.20
2022-09-25T15:04:51.104Z,20.10
2022-09-25T15:07:25.341Z,19.90
2022-09-25T15:09:56.007Z,19.80
2022-09-25T15:12:29.331Z,19.70
2022-09-25T15:14:58.914Z,19.60
2022-09-25T15:17:27.711Z,19.50
2022-09-25T15:19:56.742Z,19.40
2022-09-25T15:22:26.386Z,19.20
2022-09-25T15:24:58.440Z,19.10
2022-09-25T15:27:28.323Z,19.00
2022-09-25T15:29:56.531Z,18.90
2022-09-25T15:32:43.026Z,18.80
2022-09-25T15:35:22.100Z,18.70
2022-09-25T15:37:49.345Z,18.50
2022-09-25T15:40:23.212Z,18.40
2022-09-25T15:42:50.817Z,18.20
2022-09-25T15:45:32.872Z,18.10
2022-09-25T15:48:01.983Z,18.00
2022-09-25T15:50:29.707Z,17.90
2022-09-25T15:52:59.690Z,17.80
2022-09-25T15:55:31.162Z,17.70
2022-09-25T15:58:07.684Z,17.70
2022-09-25T16:00:53.433Z,17.60
2022-09-25T16:03:42.154Z,17.50
2022-09-25T16:06:17.204Z,17.40
2022-09-25T16:08:44.437Z,17.40
2022-09-25T16:11:26.642Z,17.30
2022-09-25T16:14:13.835Z,17.20
2022-09-25T16:16:47.509Z,17.20
2022-09-25T16:19:40.976Z,17.10
2022-09-25T16:22:23.905Z,17.00
2022-09-25T16:24:52.113Z,16.90
2022-09-25T16:27:29.292Z,16.80
2022-09-25T16:30:02.788Z,16.70
2022-09-25T16:32:32.280Z,16.60
2022-09-25T16:35:01.828Z,16.50
2022-09-25T16:37:37.508Z,16.40
2022-09-25T16:40:20.159Z,16.20
2022-09-25T16:42:47.506Z,16.10
2022-09-25T16:45:23.753Z,16.00
2022-09-25T16:47:51.705Z,15.90
2022-09-25T16:50:20.763Z,15.80
2022-09-25T16:52:48.969Z,15.70
2022-09-25T16:55:26.135Z,15.60
2022-09-25T16:57:54.449Z,15.40
2022-09-25T17:00:25.662Z,15.30
2022-09-25T17:02:53.145Z,15.20
2022-09-25T17:05:20.321Z,15.10
2022-09-25T17:07:49.095Z,15.00
2022-09-25T17:10:18.820Z,14.90
2022-09-25T17:12:53.316Z,14.80
2022-09-25T17:15:27.523Z,14.70
2022-09-25T17:17:55.940Z,14.60
2022-09-25T17:20:25.390Z,14.50
2022-09-25T17:22:53.814Z,14.40
2022-09-25T17:25:49.720Z,14.30
2022-09-25T17:28:17.204Z,14.20
2022-09-25T17:30:45.190Z,14.20
2022-09-25T17:33:21.477Z,14.10
2022-09-25T17:36:06.256Z,14.00
2022-09-25T17:38:34.199Z,13.90
2022-09-25T17:41:06.831Z,13.90
2022-09-25T17:43:34.267Z,13.80
2022-09-25T17:46:01.730Z,13.80
2022-09-25T17:48:31.028Z,13.80
2022-09-25T17:50:59.202Z,13.70
2022-09-25T17:53:29.566Z,13.60
2022-09-25T17:55:57.399Z,13.60
2022-09-25T17:58:25.699Z,13.50
2022-09-25T18:00:54.313Z,13.50
2022-09-25T18:03:21.607Z,13.40
2022-09-25T18:05:49.120Z,13.30
2022-09-25T18:08:15.887Z,13.30
2022-09-25T18:10:42.771Z,13.20
2022-09-25T18:13:14.556Z,13.20
2022-09-25T18:15:48.532Z,13.10
2022-09-25T18:18:16.077Z,13.10
2022-09-25T18:21:05.697Z,13.00
2022-09-25T18:23:35.560Z,13.00
2022-09-25T18:26:04.185Z,12.90
2022-09-25T18:28:31.377Z,12.90
2022-09-25T18:30:58.910Z,12.90
2022-09-25T18:33:26.609Z,12.90
2022-09-25T18:35:53.456Z,12.90
2022-09-25T18:38:20.192Z,12.80
2022-09-25T18:40:47.058Z,12.80
2022-09-25T18:43:13.826Z,12.80
2022-09-25T18:45:42.225Z,12.80
2022-09-25T18:48:08.979Z,12.70
2022-09-25T18:50:35.738Z,12.70
2022-09-25T18:53:02.555Z,12.70
2022-09-25T18:55:29.777Z,12.60
2022-09-25T18:57:57.281Z,12.60
2022-09-25T19:00:24.353Z,12.60
2022-09-25T19:02:51.261Z,12.50
2022-09-25T19:05:18.137Z,12.50
2022-09-25T19:07:45.204Z,12.50
2022-09-25T19:10:12.963Z,12.40
2022-09-25T19:12:39.761Z,12.40
2022-09-25T19:15:07.294Z,12.30
2022-09-25T19:17:35.815Z,12.30
2022-09-25T19:20:02.610Z,12.20
2022-09-25T19:22:29.412Z,12.20
2022-09-25T19:24:56.773Z,12.10
2022-09-25T19:27:25.692Z,12.10
2022-09-25T19:29:52.552Z,12.00
2022-09-25T19:32:19.602Z,12.00
2022-09-25T19:34:46.434Z,11.90
2022-09-25T19:37:15.190Z,11.90
2022-09-25T19:40:00.723Z,11.80
2022-09-25T19:42:33.668Z,11.70
2022-09-25T19:45:01.630Z,11.70
2022-09-25T19:47:28.704Z,11.60
2022-09-25T19:49:55.490Z,11.60
2022-09-25T19:52:22.397Z,11.50
2022-09-25T19:54:49.123Z,11.50
2022-09-25T19:57:16.256Z,11.40
2022-09-25T19:59:43.022Z,11.40
2022-09-25T20:02:10.290Z,11.40
2022-09-25T20:04:37.436Z,11.40
2022-09-25T20:07:04.181Z,11.30
2022-09-25T20:09:33.739Z,11.30
2022-09-25T20:12:03.166Z,11.30
2022-09-25T20:14:29.960Z,11.30
2022-09-25T20:16:56.833Z,11.30
2022-09-25T20:19:23.694Z,11.30
2022-09-25T20:21:52.995Z,11.30
2022-09-25T20:24:20.284Z,11.30
2022-09-25T20:26:47.837Z,11.30
2022-09-25T20:29:16.982Z,11.30
2022-09-25T20:31:45.318Z,11.30
2022-09-25T20:34:14.314Z,11.30
2022-09-25T20:36:41.070Z,11.30
2022-09-25T20:39:08.027Z,11.30
2022-09-25T20:41:34.990Z,11.30
2022-09-25T20:44:02.171Z,11.30
2022-09-25T20:46:30.041Z,11.30
2022-09-25T20:48:58.684Z,11.20
2022-09-25T20:51:28.030Z,11.20
2022-09-25T20:54:06.737Z,11.20
2022-09-25T20:56:35.476Z,11.20
2022-09-25T20:59:03.427Z,11.20
2022-09-25T21:01:34.542Z,11.20
2022-09-25T21:04:03.117Z,11.20
2022-09-25T21:06:32.952Z,11.10
2022-09-25T21:09:02.189Z,11.10
2022-09-25T21:11:31.283Z,11.10
2022-09-25T21:14:02.706Z,11.10
2022-09-25T21:16:32.819Z,11.10
2022-09-25T21:19:04.255Z,11.10
2022-09-25T21:21:33.160Z,11.00
2022-09-25T21:24:01.394Z,11.00
2022-09-25T21:26:30.040Z,11.00
2022-09-25T21:28:59.965Z,11.00
2022-09-25T21:31:43.744Z,10.90
2022-09-25T21:34:15.325Z,10.90
2022-09-25T21:36:43.564Z,10.90
2022-09-25T21:39:10.953Z,10.80
2022-09-25T21:41:38.514Z,10.80
2022-09-25T21:44:11.491Z,10.70
2022-09-25T21:46:38.686Z,10.70
2022-09-25T21:49:07.034Z,10.70
2022-09-25T21:51:39.279Z,10.70
2022-09-25T21:54:07.866Z,10.70
2022-09-25T21:56:35.063Z,10.60
2022-09-25T21:59:08.365Z,10.60
2022-09-25T22:01:38.276Z,10.60
2022-09-25T22:04:08.189Z,10.50
2022-09-25T22:06:37.538Z,10.50
2022-09-25T22:09:19.679Z,10.50
2022-09-25T22:11:47.918Z,10.50
2022-09-25T22:14:16.497Z,10.40
2022-09-25T22:16:46.331Z,10.40
2022-09-25T22:19:20.614Z,10.40
2022-09-25T22:21:50.495Z,10.30
2022-09-25T22:24:17.947Z,10.30
2022-09-25T22:26:46.244Z,10.30
2022-09-25T22:29:14.159Z,10.30
2022-09-25T22:31:44.458Z,10.20
2022-09-25T22:34:20.085Z,10.20
2022-09-25T22:36:47.574Z,10.20
2022-09-25T22:39:17.056Z,10.20
2022-09-25T22:41:44.879Z,10.20
2022-09-25T22:44:11.794Z,10.10
2022-09-25T22:46:38.602Z,10.10
2022-09-25T22:49:05.620Z,10.10
2022-09-25T22:51:32.586Z,10.00
2022-09-25T22:53:59.413Z,10.00
2022-09-25T22:56:31.089Z,10.00
2022-09-25T22:59:01.811Z,10.00
2022-09-25T23:01:31.069Z,10.00
2022-09-25T23:04:00.634Z,10.10
2022-09-25T23:06:29.544Z,10.00
2022-09-25T23:08:59.521Z,10.00
2022-09-25T23:11:27.391Z,10.00
2022-09-25T23:14:02.593Z,9.90
2022-09-25T23:16:31.744Z,9.90
2022-09-25T23:18:59.964Z,9.90
2022-09-25T23:21:29.374Z,9.90
2022-09-25T23:23:58.228Z,9.90
2022-09-25T23:26:25.848Z,9.80
2022-09-25T23:28:53.211Z,9.90
2022-09-25T23:31:20.861Z,9.80
2022-09-25T23:33:48.348Z,9.80
2022-09-25T23:36:20.182Z,9.80
2022-09-25T23:38:48.871Z,9.80
2022-09-25T23:41:24.291Z,9.80
2022-09-25T23:43:53.657Z,9.80
2022-09-25T23:46:22.040Z,9.80
2022-09-25T23:48:48.889Z,9.80
2022-09-25T23:51:19.355Z,9.80
2022-09-25T23:53:46.842Z,9.80
2022-09-25T23:56:16.962Z,9.80
2022-09-25T23:58:44.281Z,9.80
